Time;durP1;ratioP1;P1;durP2;ratioP2;P2;SDS_P1;SDS_P2;PMS_P1;PMS_P2;Temp;Humidity;BMP_temperature;BMP_pressure;BME280_temperature;BME280_humidity;BME280_pressure;Samples;Min_cycle;Max_cycle;Signal;HPM_P1;HPM_P2
2021/03/26 00:02:14;;;;;;;32.50;20.23;;;7.80;99.90;;;8.79;86.18;100987.78;5050835;28;20059;-83
2021/03/26 00:04:40;;;;;;;32.83;20.55;;;7.80;99.90;;;8.72;86.83;100991.09;5067645;28;20037;-82
2021/03/26 00:07:07;;;;;;;32.65;20.65;;;7.70;99.90;;;8.79;87.04;100994.19;5045429;28;20029;-84
2021/03/26 00:09:36;;;;;;;32.28;19.35;;;7.70;99.90;;;8.68;87.50;100987.34;5063763;28;20039;-84
2021/03/26 00:12:14;;;;;;;34.38;20.15;;;7.70;99.90;;;8.68;87.49;100990.13;5063508;28;20029;-84
2021/03/26 00:14:41;;;;;;;31.52;20.27;;;7.70;99.90;;;8.79;86.74;100993.34;5063467;28;20496;-83
2021/03/26 00:17:07;;;;;;;31.45;20.42;;;7.70;99.90;;;8.76;86.64;100991.25;5062801;28;20063;-85
2021/03/26 00:19:32;;;;;;;32.47;20.90;;;7.60;99.90;;;8.64;87.39;100983.59;5080949;28;20032;-84
2021/03/26 00:21:59;;;;;;;40.38;20.95;;;7.70;99.90;;;8.67;86.90;100987.72;5063178;28;20032;-83
2021/03/26 00:24:27;;;;;;;33.25;20.33;;;7.60;99.90;;;8.60;87.26;100988.25;5063476;28;20024;-84
2021/03/26 00:26:52;;;;;;;36.03;21.42;;;7.50;99.90;;;8.53;87.77;100987.94;5063374;28;20028;-84
2021/03/26 00:29:21;;;;;;;36.15;21.42;;;7.50;99.90;;;8.51;88.25;100990.22;5080298;28;20553;-85
2021/03/26 00:31:50;;;;;;;41.13;21.58;;;7.50;99.90;;;8.60;87.83;100988.25;5065026;28;20166;-84
2021/03/26 00:34:18;;;;;;;35.88;21.35;;;7.50;99.90;;;8.55;87.68;100984.81;5064771;28;20503;-85
2021/03/26 00:36:45;;;;;;;35.53;21.80;;;7.50;99.90;;;8.56;87.74;100981.72;5064593;28;20035;-83
2021/03/26 00:39:12;;;;;;;36.92;21.27;;;7.50;99.90;;;8.56;87.71;100978.09;5081887;28;20043;-84
2021/03/26 00:41:38;;;;;;;40.38;21.38;;;7.50;99.90;;;8.50;87.96;100971.91;5081271;28;20052;-86
2021/03/26 00:44:06;;;;;;;33.33;20.88;;;7.40;99.90;;;8.45;88.06;100978.47;5079744;28;20028;-84
2021/03/26 00:46:38;;;;;;;37.20;21.70;;;7.40;99.90;;;8.41;88.21;100982.28;5062412;28;20078;-85
2021/03/26 00:49:04;;;;;;;37.65;21.83;;;7.40;99.90;;;8.43;88.43;100988.31;5062722;28;20040;-84
2021/03/26 00:51:30;;;;;;;36.63;23.17;;;7.30;99.90;;;8.37;88.43;100979.38;5063586;28;20064;-83
2021/03/26 00:53:56;;;;;;;39.95;22.35;;;7.30;99.90;;;8.32;88.85;100970.34;5080210;28;20419;-84
2021/03/26 00:56:22;;;;;;;35.92;21.45;;;7.30;99.90;;;8.32;88.33;100973.97;5078879;28;20063;-85
2021/03/26 00:58:48;;;;;;;36.92;22.40;;;7.30;99.90;;;8.23;88.70;100978.72;5063706;28;20027;-84
2021/03/26 01:01:14;;;;;;;35.67;22.58;;;7.20;99.90;;;8.20;88.98;100975.78;5091404;28;20028;-81
2021/03/26 01:03:40;;;;;;;35.25;21.38;;;7.10;99.90;;;8.20;88.91;100973.00;5069020;28;20047;-82
2021/03/26 01:06:10;;;;;;;37.10;22.38;;;7.10;99.90;;;8.12;89.81;100968.31;5059529;28;20024;-81
2021/03/26 01:08:38;;;;;;;38.97;22.08;;;7.10;99.90;;;8.08;90.22;100975.69;5045952;28;20177;-82
2021/03/26 01:11:30;;;;;;;36.50;22.45;;;7.10;99.90;;;8.17;89.85;100971.72;5057836;28;20033;-85
2021/03/26 01:13:57;;;;;;;37.47;22.02;;;7.10;99.90;;;8.19;89.68;100972.19;5038988;28;20028;-81
2021/03/26 01:16:28;;;;;;;37.90;22.05;;;7.10;99.90;;;8.13;89.71;100969.94;5057106;28;20392;-84
2021/03/26 01:18:54;;;;;;;40.83;23.67;;;7.10;99.90;;;8.05;89.70;100965.22;5040750;28;20476;-84
2021/03/26 01:21:38;;;;;;;37.83;22.25;;;7.00;99.90;;;8.04;89.88;100969.16;5058590;28;20032;-85
2021/03/26 01:24:11;;;;;;;37.63;21.73;;;7.00;99.90;;;8.00;89.87;100968.19;5040287;28;20053;-82
2021/03/26 01:26:37;;;;;;;38.90;22.98;;;6.90;99.90;;;7.92;90.42;100967.09;5057257;28;20071;-85
2021/03/26 01:29:07;;;;;;;46.03;23.17;;;6.90;99.90;;;7.90;90.55;100958.25;5039641;28;20433;-84
2021/03/26 01:31:34;;;;;;;39.33;22.98;;;6.80;99.90;;;7.84;90.54;100957.63;5040161;28;20052;-84
2021/03/26 01:34:03;;;;;;;43.55;23.27;;;6.80;99.90;;;7.92;90.67;100953.19;5040836;28;20025;-85
2021/03/26 01:36:29;;;;;;;45.05;23.65;;;6.90;99.90;;;7.91;90.28;100954.31;5040157;28;20082;-85
2021/03/26 01:38:55;;;;;;;38.95;22.65;;;6.80;99.90;;;7.90;90.30;100947.94;5058791;28;20342;-84
2021/03/26 01:41:21;;;;;;;41.65;24.17;;;6.80;99.90;;;7.91;90.71;100955.13;5040544;28;20127;-83
2021/03/26 01:43:48;;;;;;;38.45;22.63;;;6.80;99.90;;;7.87;90.52;100947.78;5041525;28;20033;-83
2021/03/26 01:46:16;;;;;;;42.03;24.23;;;6.80;99.90;;;7.85;90.53;100945.34;5042147;28;20384;-84
2021/03/26 01:48:58;;;;;;;50.53;25.00;;;6.80;99.90;;;7.83;90.50;100941.28;5041701;28;20079;-82
2021/03/26 01:51:41;;;;;;;42.83;24.52;;;6.70;99.90;;;7.80;91.26;100934.38;5041843;28;20031;-84
2021/03/26 01:54:14;;;;;;;41.70;23.85;;;6.80;99.90;;;7.82;91.47;100940.44;5041771;28;20024;-83
2021/03/26 01:56:41;;;;;;;40.80;22.88;;;6.80;99.90;;;7.93;90.74;100932.53;5056692;28;20043;-85
2021/03/26 01:59:08;;;;;;;46.22;25.65;;;6.90;99.90;;;7.94;90.95;100937.78;5056475;28;20033;-84
2021/03/26 02:01:47;;;;;;;45.95;24.42;;;6.90;99.90;;;8.00;90.88;100938.41;5057179;28;20116;-86
2021/03/26 02:04:33;;;;;;;44.60;23.65;;;6.90;99.90;;;8.00;89.85;100932.03;5041668;28;20052;-84
2021/03/26 02:07:00;;;;;;;44.20;24.00;;;6.90;99.90;;;7.93;90.49;100933.34;5040590;28;20037;-85
2021/03/26 02:09:37;;;;;;;44.38;23.17;;;6.80;99.90;;;7.92;90.05;100933.72;5040138;28;20033;-85
2021/03/26 02:12:27;;;;;;;40.22;23.58;;;6.80;99.90;;;7.82;90.73;100929.34;5058377;28;20036;-85
2021/03/26 02:15:28;;;;;;;44.90;24.10;;;6.80;99.90;;;7.89;90.74;100926.03;5042548;28;20060;-85
2021/03/26 02:17:56;;;;;;;43.55;23.95;;;6.80;99.90;;;7.84;90.57;100927.03;5041148;28;20037;-81
2021/03/26 02:20:45;;;;;;;45.63;24.23;;;6.70;99.90;;;7.84;90.63;100929.81;5044805;28;20082;-81
2021/03/26 02:23:27;;;;;;;41.38;23.67;;;6.70;99.90;;;7.80;91.00;100928.03;5063263;28;20037;-84
2021/03/26 02:25:59;;;;;;;44.75;24.65;;;6.70;99.90;;;7.79;91.10;100916.09;5042927;28;20045;-84
2021/03/26 02:28:26;;;;;;;46.33;25.13;;;6.60;99.90;;;7.73;90.96;100916.59;5070143;28;20028;-84
2021/03/26 02:30:58;;;;;;;45.38;24.85;;;6.60;99.90;;;7.72;91.47;100915.78;5052440;28;20039;-83
2021/03/26 02:33:27;;;;;;;42.60;24.80;;;6.60;99.90;;;7.72;91.38;100912.19;5053516;28;20025;-85
2021/03/26 02:36:13;;;;;;;44.58;25.52;;;6.60;99.90;;;7.71;91.05;100911.38;5053539;28;20025;-86
2021/03/26 02:38:51;;;;;;;48.15;24.85;;;6.60;99.90;;;7.67;91.98;100907.66;5051932;28;20040;-85
2021/03/26 02:41:46;;;;;;;47.85;25.33;;;6.60;99.90;;;7.81;91.71;100901.84;5037561;28;20051;-83
2021/03/26 02:45:00;;;;;;;45.73;25.77;;;6.70;99.90;;;7.87;90.84;100912.44;5054163;28;20035;-82
2021/03/26 02:47:50;;;;;;;49.45;25.33;;;6.80;99.90;;;7.78;91.05;100911.69;5055041;28;20053;-84
2021/03/26 02:50:31;;;;;;;46.88;25.42;;;6.80;99.90;;;7.85;91.30;100911.97;5054446;28;20033;-85
2021/03/26 02:53:19;;;;;;;44.15;23.83;;;6.90;99.90;;;7.90;90.70;100917.34;5038853;28;20098;-83
2021/03/26 02:56:22;;;;;;;45.63;24.83;;;6.90;99.90;;;7.92;90.62;100917.03;5058627;28;20040;-82
2021/03/26 02:59:03;;;;;;;47.95;24.92;;;6.90;99.90;;;7.87;89.69;100915.22;5039096;28;20024;-85
2021/03/26 03:01:47;;;;;;;46.58;23.75;;;6.80;99.90;;;7.86;90.02;100918.38;5056474;28;20033;-84
2021/03/26 03:04:22;;;;;;;44.70;24.23;;;6.80;99.90;;;7.77;90.07;100925.94;5039146;28;20024;-83
2021/03/26 03:07:09;;;;;;;41.67;23.90;;;6.70;99.90;;;7.71;90.06;100919.72;5057244;28;20025;-82
2021/03/26 03:09:42;;;;;;;42.58;24.83;;;6.60;99.90;;;7.61;91.16;100922.84;5040596;28;20044;-83
2021/03/26 03:12:39;;;;;;;43.38;25.02;;;6.70;99.90;;;7.71;90.99;100918.88;5041891;28;20472;-84
2021/03/26 03:15:27;;;;;;;;;;;6.70;99.90;;;7.73;90.58;100922.16;5060366;28;20028;-83
2021/03/26 03:18:02;;;;;;;45.72;23.42;;;6.70;99.90;;;7.72;90.46;100918.56;5042490;28;19947;-85
2021/03/26 03:20:49;;;;;;;43.33;24.65;;;6.70;99.90;;;7.71;90.06;100916.09;5058743;28;20079;-85
2021/03/26 03:23:32;;;;;;;;;;;6.70;99.90;;;7.68;90.44;100912.03;5043862;28;20029;-83
2021/03/26 03:26:16;;;;;;;44.58;25.00;;;6.70;99.90;;;7.66;90.61;100908.78;5052438;28;19913;-84
2021/03/26 03:29:18;;;;;;;47.42;26.52;;;6.70;99.90;;;7.69;90.32;100910.91;5037423;28;20036;-84
2021/03/26 03:31:56;;;;;;;41.55;24.38;;;6.70;99.90;;;7.70;90.13;100906.97;5035888;28;20041;-84
2021/03/26 03:34:41;;;;;;;47.45;25.95;;;6.70;99.90;;;7.64;90.85;100905.50;5038217;28;20113;-81
2021/03/26 03:37:38;;;;;;;42.10;25.45;;;6.70;99.90;;;7.65;91.01;100901.56;5055688;28;20043;-84
2021/03/26 03:40:26;;;;;;;48.45;25.50;;;6.80;99.90;;;7.73;90.53;100905.50;5042879;28;20048;-84
2021/03/26 03:43:32;;;;;;;47.42;25.35;;;6.80;99.90;;;7.70;90.49;100903.38;5043147;28;20029;-85
2021/03/26 03:46:19;;;;;;;46.88;25.17;;;6.80;99.90;;;7.76;90.54;100902.88;5043735;28;20025;-83
2021/03/26 03:49:11;;;;;;;52.45;27.10;;;6.80;99.90;;;7.87;89.92;100903.28;5062545;28;20025;-84
2021/03/26 03:52:26;;;;;;;44.38;24.35;;;6.90;99.90;;;7.85;90.08;100898.06;5054668;28;20040;-83
2021/03/26 03:55:04;;;;;;;49.30;25.15;;;6.90;99.90;;;7.87;90.02;100897.72;5039073;28;20055;-81
2021/03/26 03:57:59;;;;;;;44.67;24.60;;;6.90;99.90;;;7.89;90.21;100898.22;5038440;28;20028;-81
2021/03/26 04:00:44;;;;;;;45.22;25.60;;;6.90;99.90;;;7.87;90.30;100894.94;5057639;28;20048;-82
2021/03/26 04:03:32;;;;;;;44.60;26.00;;;6.90;99.90;;;7.89;89.71;100893.47;5038946;28;20028;-82
2021/03/26 04:06:15;;;;;;;44.13;25.10;;;6.90;99.90;;;7.79;90.66;100888.28;5038017;28;20123;-82
2021/03/26 04:08:57;;;;;;;46.38;26.48;;;6.90;99.90;;;7.79;90.46;100890.25;5068670;28;20071;-82
2021/03/26 04:11:41;;;;;;;55.70;28.88;;;6.90;99.90;;;7.83;90.55;100888.44;5075320;28;20121;-82
2021/03/26 04:14:40;;;;;;;49.13;25.95;;;6.90;99.90;;;7.80;90.43;100886.31;5056999;28;20444;-82
2021/03/26 04:17:31;;;;;;;42.15;25.60;;;6.90;99.90;;;7.83;89.88;100882.88;5056754;28;20059;-83
2021/03/26 04:20:14;;;;;;;51.42;28.00;;;6.90;99.90;;;7.86;90.03;100888.59;5074435;28;20042;-82
2021/03/26 04:22:53;;;;;;;45.00;25.83;;;6.90;99.90;;;7.82;90.17;100879.28;5058797;28;20028;-83
2021/03/26 04:25:35;;;;;;;51.28;27.58;;;6.80;99.90;;;7.72;90.53;100884.38;5059102;28;20116;-83
2021/03/26 04:28:35;;;;;;;50.72;27.40;;;6.80;99.90;;;7.67;90.78;100887.34;5058422;28;20024;-83
2021/03/26 04:31:10;;;;;;;52.53;27.80;;;6.70;99.90;;;7.64;91.00;100883.25;5074515;28;20032;-81
2021/03/26 04:33:36;;;;;;;51.55;27.20;;;6.80;99.90;;;7.73;90.30;100880.47;5075506;28;20051;-81
2021/03/26 04:36:08;;;;;;;51.00;27.80;;;6.70;99.90;;;7.69;90.45;100879.50;5075041;28;20032;-81
2021/03/26 04:39:02;;;;;;;47.30;29.23;;;6.70;99.90;;;7.65;90.71;100879.34;5063539;28;20028;-82
2021/03/26 04:42:25;;;;;;;50.03;28.70;;;6.70;99.90;;;7.65;90.75;100884.06;5065571;28;20784;-82
2021/03/26 04:45:32;;;;;;;47.13;27.48;;;6.70;99.90;;;7.63;90.35;100887.22;5056596;28;20037;-85
2021/03/26 04:48:34;;;;;;;51.05;27.33;;;6.60;99.90;;;7.49;90.36;100888.53;5059331;28;20396;-84
2021/03/26 04:51:39;;;;;;;51.22;26.98;;;6.40;99.90;;;7.45;90.42;100885.63;5058537;28;20057;-83
2021/03/26 04:54:43;;;;;;;50.83;27.58;;;6.40;99.90;;;7.35;90.97;100884.00;5058873;28;20115;-83
2021/03/26 04:57:27;;;;;;;55.83;29.27;;;6.30;99.90;;;7.24;91.98;100879.13;5059418;28;20025;-81
2021/03/26 05:00:53;;;;;;;55.08;28.65;;;6.30;99.90;;;7.25;91.43;100870.50;5076157;28;20036;-84
2021/03/26 05:03:26;;;;;;;59.70;29.70;;;6.20;99.90;;;7.22;92.85;100875.88;5056799;22;20072;-79
2021/03/26 05:06:04;;;;;;;56.65;31.42;;;6.20;99.90;;;7.26;92.55;100866.53;5055321;28;20032;-79
2021/03/26 05:08:32;;;;;;;55.95;29.75;;;6.30;99.90;;;7.39;91.94;100870.28;5039003;28;20099;-78
2021/03/26 05:11:02;;;;;;;55.63;30.95;;;6.40;99.90;;;7.41;92.28;100868.81;5056547;28;20033;-78
2021/03/26 05:14:11;;;;;;;57.72;30.23;;;6.50;99.90;;;7.51;92.26;100867.63;5055430;28;20029;-78
2021/03/26 05:17:00;;;;;;;58.05;30.63;;;6.50;99.90;;;7.56;91.53;100869.41;5038036;28;20465;-78
2021/03/26 05:20:24;;;;;;;56.85;30.77;;;6.50;99.90;;;7.54;91.54;100874.50;5056541;28;20471;-79
2021/03/26 05:23:20;;;;;;;55.03;30.88;;;6.50;99.90;;;7.54;91.05;100875.31;5037516;28;20048;-77
2021/03/26 05:25:55;;;;;;;53.50;31.00;;;6.50;99.90;;;7.57;90.99;100873.81;5055345;28;20090;-80
2021/03/26 05:28:27;;;;;;;52.45;29.75;;;6.50;99.90;;;7.52;90.98;100873.97;5036994;28;20029;-77
2021/03/26 05:30:57;;;;;;;52.60;30.35;;;6.50;99.90;;;7.49;91.39;100872.69;5054743;28;20059;-77
2021/03/26 05:33:48;;;;;;;54.25;29.35;;;6.50;99.90;;;7.52;91.09;100873.97;5054634;28;20028;-80
2021/03/26 05:37:14;;;;;;;54.47;29.98;;;6.40;99.90;;;7.48;91.53;100875.81;5054812;28;20480;-80
2021/03/26 05:39:47;;;;;;;61.67;31.42;;;6.40;99.90;;;7.47;91.14;100872.22;5055479;28;20060;-78
2021/03/26 05:42:45;;;;;;;61.67;31.65;;;6.50;99.90;;;7.47;91.78;100871.41;5036899;28;20037;-79
2021/03/26 05:45:46;;;;;;;59.08;31.23;;;6.50;99.90;;;7.52;91.74;100869.25;5055493;28;20033;-78
2021/03/26 05:49:11;;;;;;;53.38;29.67;;;6.60;99.90;;;7.61;91.55;100872.81;5036929;28;20094;-79
2021/03/26 05:52:15;;;;;;;56.50;31.10;;;6.60;99.90;;;7.73;91.21;100877.69;5027658;28;20041;-79
2021/03/26 05:55:15;;;;;;;53.85;29.27;;;6.70;99.90;;;7.73;91.06;100874.91;5012724;28;20025;-77
2021/03/26 05:58:19;;;;;;;59.20;31.20;;;6.80;99.90;;;7.80;90.56;100872.44;5032784;28;20389;-77
2021/03/26 06:01:10;;;;;;;56.83;30.73;;;6.80;99.90;;;7.82;90.50;100876.50;5035642;28;20021;-78
2021/03/26 06:04:27;;;;;;;52.47;30.75;;;6.90;99.90;;;7.88;90.23;100877.13;5049497;28;20059;-78
2021/03/26 06:07:45;;;;;;;55.50;28.83;;;6.90;99.90;;;7.87;90.38;100876.28;5042896;28;20036;-78
2021/03/26 06:10:57;;;;;;;47.28;28.25;;;6.90;99.90;;;7.96;90.03;100876.28;5028192;28;20029;-80
2021/03/26 06:13:53;;;;;;;47.67;27.90;;;7.10;99.90;;;8.06;89.50;100875.88;4997780;28;20120;-80
2021/03/26 06:16:48;;;;;;;55.00;29.60;;;7.10;99.90;;;8.08;89.63;100875.53;5042762;28;20025;-78
2021/03/26 06:20:18;;;;;;;52.75;29.48;;;7.20;99.90;;;8.25;88.96;100869.88;5068969;28;20029;-81
2021/03/26 06:23:08;;;;;;;53.33;28.55;;;7.30;99.90;;;8.40;88.29;100883.22;5047452;28;20029;-81
2021/03/26 06:25:53;;;;;;;48.50;28.73;;;7.40;99.90;;;8.59;87.56;100875.22;5074216;28;20024;-77
2021/03/26 06:28:50;;;;;;;45.58;27.88;;;7.50;99.90;;;8.96;86.28;100879.81;5075201;28;20032;-79
2021/03/26 06:31:59;;;;;;;44.90;26.15;;;7.60;99.90;;;8.89;85.43;100871.19;5074941;28;20029;-77
2021/03/26 06:35:23;;;;;;;43.97;24.98;;;7.80;99.90;;;9.14;84.61;100871.31;5054040;28;20036;-80
2021/03/26 06:38:09;;;;;;;44.92;25.88;;;7.90;99.90;;;9.29;84.01;100863.09;5071113;28;20071;-83
2021/03/26 06:41:39;;;;;;;41.28;24.75;;;8.10;99.90;;;9.48;83.05;100868.13;5036306;28;20028;-79
2021/03/26 06:44:57;;;;;;;42.40;24.63;;;8.30;99.90;;;9.65;82.03;100867.94;5053765;28;20109;-81
2021/03/26 06:48:12;;;;;;;42.35;25.52;;;8.50;99.90;;;9.98;81.51;100870.66;5035073;28;20575;-80
2021/03/26 06:51:22;;;;;;;39.72;23.90;;;8.70;99.90;;;9.98;81.32;100867.84;5035127;28;20037;-83
2021/03/26 06:54:23;;;;;;;42.28;24.48;;;8.90;99.90;;;10.09;79.97;100863.41;5053705;28;20065;-82
2021/03/26 06:57:25;;;;;;;40.58;23.80;;;9.10;99.90;;;10.13;80.22;100864.34;5054759;28;20043;-81
2021/03/26 07:00:45;;;;;;;43.25;23.17;;;9.20;99.90;;;10.41;79.34;100868.06;5053206;28;20120;-81
2021/03/26 07:04:05;;;;;;;42.83;24.58;;;9.30;99.90;;;10.28;79.56;100860.06;5053375;28;20037;-83
2021/03/26 07:07:10;;;;;;;44.50;25.42;;;9.40;99.90;;;10.28;79.56;100857.25;4956547;28;20668;-83
2021/03/26 07:10:20;;;;;;;44.75;24.10;;;9.40;99.90;;;10.61;79.28;100845.91;5016695;28;20033;-81
2021/03/26 07:13:30;;;;;;;41.35;24.23;;;9.60;99.90;;;10.62;77.94;100856.75;5018258;28;20085;-80
2021/03/26 07:16:46;;;;;;;38.25;23.98;;;9.80;99.90;;;10.52;77.97;100848.84;5038077;28;20033;-81
2021/03/26 07:20:07;;;;;;;38.63;24.45;;;9.80;99.90;;;10.71;77.48;100846.25;5020965;28;20021;-81
2021/03/26 07:23:18;;;;;;;45.65;25.10;;;10.00;99.90;;;11.03;76.63;100849.94;5037951;28;20053;-80
2021/03/26 07:26:37;;;;;;;40.65;23.58;;;10.20;99.90;;;11.09;75.90;100852.13;5039042;28;20056;-82
2021/03/26 07:30:02;;;;;;;42.30;24.60;;;10.40;99.90;;;11.47;74.55;100850.75;5009895;28;20481;-81
2021/03/26 07:33:11;;;;;;;39.53;24.20;;;10.60;99.90;;;11.52;74.31;100856.09;5038057;28;20063;-78
2021/03/26 07:36:27;;;;;;;39.88;23.58;;;10.70;99.90;;;11.79;72.93;100848.81;5037819;28;20454;-81
2021/03/26 07:39:48;;;;;;;46.90;24.60;;;10.90;99.90;;;12.42;71.58;100849.53;5040744;28;20033;-81
2021/03/26 07:42:45;;;;;;;38.13;23.73;;;11.20;99.90;;;12.45;71.30;100849.63;5021987;28;20068;-83
2021/03/26 07:45:35;;;;;;;34.38;22.75;;;11.50;99.90;;;12.86;69.07;100850.91;5040352;28;20128;-80
2021/03/26 07:49:22;;;;;;;32.15;21.15;;;11.70;99.90;;;12.91;67.67;100850.59;5040408;28;20028;-82
2021/03/26 07:52:47;;;;;;;39.40;22.15;;;11.80;99.90;;;13.11;67.38;100843.03;5027263;28;20037;-82
2021/03/26 07:55:59;;;;;;;36.80;21.48;;;12.00;99.90;;;13.68;64.74;100845.69;5038191;28;20060;-82
2021/03/26 07:59:55;;;;;;;32.42;20.65;;;12.40;99.90;;;13.20;64.94;100836.00;5018685;28;20079;-82
2021/03/26 08:03:15;;;;;;;34.80;20.88;;;12.40;99.90;;;13.52;64.04;100841.41;4995545;28;20543;-83
2021/03/26 08:06:43;;;;;;;31.20;19.88;;;12.50;99.90;;;13.62;65.50;100835.97;5039724;28;20044;-79
2021/03/26 08:09:36;;;;;;;31.02;18.92;;;12.60;99.90;;;14.18;60.58;100838.94;5038905;28;20041;-82
2021/03/26 08:12:35;;;;;;;31.38;20.75;;;13.00;99.90;;;14.12;62.15;100839.63;5046241;28;20031;-82
2021/03/26 08:15:53;;;;;;;29.17;18.63;;;13.10;99.90;;;14.51;60.38;100845.88;5038538;28;20037;-83
2021/03/26 08:18:50;;;;;;;28.50;17.95;;;13.30;99.90;;;14.31;60.72;100835.88;5047915;28;20033;-83
2021/03/26 08:21:35;;;;;;;25.63;17.98;;;13.40;99.90;;;14.72;59.79;100835.72;5038064;28;20062;-81
2021/03/26 08:25:00;;;;;;;30.40;18.50;;;13.60;99.90;;;14.76;57.99;100841.38;5038639;28;20496;-81
2021/03/26 08:28:16;;;;;;;28.05;18.40;;;13.80;99.90;;;15.48;57.41;100833.41;5039081;28;20041;-80
2021/03/26 08:30:44;;;;;;;24.08;15.90;;;14.10;99.90;;;15.30;56.44;100843.63;5002595;28;20135;-83
2021/03/26 08:34:13;;;;;;;23.40;16.50;;;14.30;99.90;;;15.47;56.26;100840.22;5057372;28;20447;-79
2021/03/26 08:37:16;;;;;;;24.65;17.00;;;14.40;99.90;;;15.41;57.42;100847.34;4997018;28;20037;-83
2021/03/26 08:39:50;;;;;;;24.73;15.77;;;14.50;99.90;;;14.73;57.68;100842.97;5040859;28;20036;-83
2021/03/26 08:42:45;;;;;;;29.60;16.65;;;14.20;99.90;;;15.12;56.31;100846.25;5068891;28;20040;-78
2021/03/26 08:45:42;;;;;;;24.80;16.17;;;14.20;99.90;;;15.44;55.53;100837.34;5058624;28;20029;-82
2021/03/26 08:48:39;;;;;;;22.02;13.95;;;14.40;99.90;;;15.38;54.55;100836.88;5039094;28;20032;-82
2021/03/26 08:52:03;;;;;;;23.60;14.85;;;14.60;99.90;;;15.46;54.42;100830.13;5056790;28;20111;-82
2021/03/26 08:54:52;;;;;;;25.05;16.33;;;14.60;99.90;;;15.81;53.28;100835.31;5026748;28;20124;-81
2021/03/26 08:57:48;;;;;;;27.15;16.70;;;14.80;99.90;;;15.34;55.97;100830.41;5039335;28;20393;-81
2021/03/26 09:01:07;;;;;;;24.73;14.95;;;14.60;99.90;;;15.90;53.37;100829.34;5038596;28;20182;-82
2021/03/26 09:04:41;;;;;;;26.33;17.65;;;14.80;99.90;;;15.92;53.97;100832.59;5037939;28;20068;-80
2021/03/26 09:07:52;;;;;;;27.40;17.13;;;14.90;99.90;;;15.93;53.57;100835.00;5038114;28;20075;-81
2021/03/26 09:10:56;;;;;;;23.05;15.30;;;15.00;99.90;;;15.81;52.70;100827.69;5037005;28;20028;-81
2021/03/26 09:13:53;;;;;;;23.05;15.40;;;15.00;99.90;;;15.90;52.78;100827.34;5055867;28;20033;-84
2021/03/26 09:16:31;;;;;;;24.10;15.35;;;14.90;99.90;;;15.31;53.89;100826.34;5039944;28;20098;-82
2021/03/26 09:19:28;;;;;;;23.05;15.65;;;14.80;99.90;;;15.78;53.87;100830.47;5057934;28;20021;-81
2021/03/26 09:23:01;;;;;;;23.95;16.13;;;14.90;99.90;;;16.03;52.49;100828.66;5057649;28;20116;-81
2021/03/26 09:25:57;;;;;;;21.17;15.50;;;15.10;99.90;;;16.06;53.48;100819.41;5008391;28;20398;-82
2021/03/26 09:28:51;;;;;;;20.42;14.15;;;15.00;99.90;;;15.54;53.05;100822.63;5032135;28;20484;-83
2021/03/26 09:31:40;;;;;;;21.80;14.98;;;15.00;99.90;;;15.53;54.55;100815.34;5037888;28;20048;-82
2021/03/26 09:34:31;;;;;;;21.63;14.10;;;14.80;99.90;;;16.41;52.37;100809.59;5037236;28;20036;-79
2021/03/26 09:37:28;;;;;;;22.33;14.57;;;15.10;99.90;;;15.34;53.08;100821.16;5038847;28;20491;-81
2021/03/26 09:40:01;;;;;;;20.67;13.30;;;14.70;99.90;;;15.71;53.01;100808.69;5056816;28;20120;-79
2021/03/26 09:42:44;;;;;;;22.13;14.27;;;14.90;99.90;;;15.44;52.55;100795.94;5056071;28;20463;-83
2021/03/26 09:45:32;;;;;;;18.95;12.43;;;14.80;99.90;;;15.23;53.46;100801.34;5037967;28;20044;-82
2021/03/26 09:48:01;;;;;;;18.50;12.73;;;14.60;99.90;;;15.86;51.70;100797.56;5038086;28;20029;-82
2021/03/26 09:50:45;;;;;;;17.48;12.90;;;14.70;99.90;;;16.25;50.85;100793.78;5037510;28;20481;-82
2021/03/26 09:53:18;;;;;;;17.75;10.95;;;15.00;99.90;;;16.54;48.76;100791.94;5040048;28;20512;-79
2021/03/26 09:55:46;;;;;;;16.58;11.65;;;15.40;95.10;;;16.00;51.08;100792.00;5038717;28;20029;-83
2021/03/26 09:58:35;;;;;;;16.05;10.85;;;15.30;97.60;;;16.42;49.09;100789.47;5057393;28;20033;-84
2021/03/26 10:01:18;;;;;;;16.42;10.20;;;15.50;93.10;;;16.88;46.91;100803.81;5038325;28;20039;-78
2021/03/26 10:04:18;;;;;;;17.83;10.85;;;15.80;89.90;;;16.23;48.13;100795.38;5037899;28;20033;-82
2021/03/26 10:07:17;;;;;;;15.20;9.90;;;15.40;89.30;;;16.55;48.88;100790.78;5038187;28;20029;-80
2021/03/26 10:10:00;;;;;;;18.45;10.60;;;15.40;92.10;;;16.72;47.13;100794.88;5038134;28;20064;-82
2021/03/26 10:12:41;;;;;;;17.50;11.32;;;15.60;88.50;;;16.77;47.58;100781.22;5038446;28;20048;-82
2021/03/26 10:15:27;;;;;;;17.08;10.77;;;15.70;90.20;;;16.63;47.45;100781.13;5055693;28;20021;-83
2021/03/26 10:18:04;;;;;;;14.02;9.93;;;15.70;88.60;;;17.29;47.35;100774.09;5038260;28;20120;-81
2021/03/26 10:20:53;;;;;;;15.27;9.98;;;16.00;90.10;;;17.05;47.85;100763.56;5055483;28;20033;-82
2021/03/26 10:23:35;;;;;;;13.70;9.25;;;16.00;90.60;;;17.47;45.46;100767.66;5037146;28;20040;-81
2021/03/26 10:26:28;;;;;;;14.82;9.35;;;16.30;81.80;;;17.30;45.07;100769.28;5037707;28;20039;-81
2021/03/26 10:29:19;;;;;;;14.15;10.30;;;16.40;76.90;;;16.41;46.93;100776.56;5035892;28;20039;-82
2021/03/26 10:31:50;;;;;;;17.08;10.68;;;15.90;79.50;;;17.21;46.23;100757.56;5036482;28;20037;-83
2021/03/26 10:34:33;;;;;;;14.43;10.35;;;16.10;81.50;;;16.93;46.68;100747.00;5037328;28;20029;-80
2021/03/26 10:37:41;;;;;;;17.15;10.35;;;16.20;80.20;;;17.69;44.51;100746.75;5037704;28;20029;-82
2021/03/26 10:40:44;;;;;;;16.83;10.52;;;16.50;77.90;;;18.44;43.46;100746.19;5055922;28;20102;-82
2021/03/26 10:43:32;;;;;;;16.60;10.13;;;17.20;75.40;;;17.88;43.70;100735.78;5056307;28;20033;-80
2021/03/26 10:46:09;;;;;;;17.77;9.98;;;17.00;73.20;;;18.23;42.65;100739.78;5039560;28;20025;-81
2021/03/26 10:49:10;;;;;;;14.77;10.88;;;17.10;71.00;;;17.49;44.85;100737.00;5042606;28;20477;-81
2021/03/26 10:51:51;;;;;;;18.02;9.82;;;16.90;72.50;;;16.92;42.58;100731.28;5042446;28;20504;-83
2021/03/26 10:54:43;;;;;;;17.67;9.75;;;16.50;68.50;;;17.18;43.20;100721.66;5042987;28;20116;-85
2021/03/26 10:57:38;;;;;;;16.83;9.20;;;16.30;70.60;;;17.99;42.90;100710.34;5073421;28;20028;-84
2021/03/26 11:00:16;;;;;;;15.93;10.00;;;16.60;70.80;;;17.47;42.73;100712.00;5046153;28;20025;-80
2021/03/26 11:03:05;;;;;;;16.45;9.57;;;16.70;69.70;;;17.46;42.62;100704.75;5058081;28;20043;-84
2021/03/26 11:06:01;;;;;;;16.88;9.75;;;16.80;67.30;;;17.55;43.26;100693.88;5040567;28;20117;-80
2021/03/26 11:08:33;;;;;;;16.73;10.02;;;16.70;69.70;;;18.15;41.81;100699.41;5041661;28;20072;-80
2021/03/26 11:11:46;;;;;;;15.32;10.38;;;17.20;68.90;;;19.17;40.55;100694.50;5040372;28;20048;-83
2021/03/26 11:15:05;;;;;;;14.30;8.93;;;17.60;67.60;;;19.20;40.06;100685.94;4997849;28;20068;-82
2021/03/26 11:17:54;;;;;;;19.08;11.68;;;18.00;64.60;;;18.52;39.76;100684.78;5042378;28;20387;-81
2021/03/26 11:21:06;;;;;;;14.23;9.90;;;17.60;63.20;;;18.94;40.15;100678.06;5040897;28;20122;-84
2021/03/26 11:23:41;;;;;;;15.27;10.45;;;17.70;64.60;;;19.28;40.13;100695.19;5040170;28;20324;-82
2021/03/26 11:26:36;;;;;;;15.68;10.60;;;18.20;64.30;;;18.97;39.87;100693.41;5058171;28;20499;-81
2021/03/26 11:29:30;;;;;;;12.63;9.23;;;18.20;63.70;;;19.45;39.47;100686.59;5040561;28;20055;-84
2021/03/26 11:32:42;;;;;;;14.10;9.57;;;18.30;61.10;;;19.38;38.56;100686.63;5039781;28;20036;-83
2021/03/26 11:35:18;;;;;;;17.45;10.52;;;18.50;61.20;;;18.20;40.80;100675.59;4995421;28;20046;-82
2021/03/26 11:38:08;;;;;;;16.45;9.93;;;17.70;62.20;;;17.95;42.81;100666.38;5049098;28;20036;-83
2021/03/26 11:41:14;;;;;;;16.27;9.85;;;17.20;67.70;;;17.83;42.58;100662.75;5058644;28;20468;-82
2021/03/26 11:43:54;;;;;;;16.48;10.50;;;17.00;65.90;;;18.55;41.55;100650.00;5040362;28;20028;-80